<?xml version="1.0" encoding="UTF-8" standalone="no" ?>
<gpx xmlns="http://www.topografix.com/GPX/1/1" xmlns:xsi="http://www.w3.org/2001/XMLSchema-instance" xsi:schemaLocation="http://www.topografix.com/GPX/1/1 http://www.topografix.com/GPX/1/1/gpx.xsd" version="1.1" creator="VisuGPX - https://www.visugpx.com">
  <metadata>
    <name>Trans Aubrac 2022 derniere partie</name>
    <desc><![CDATA[Arrivée à st gêniez d?olt 
Km105]]></desc>
  </metadata>
  <trk>
    <name><![CDATA[Trans Aubrac 2022 derniere partie_1]]></name>
    <trkseg>
      <trkpt lat="44.50266" lon="2.98483">
        <ele>743.5</ele>
        <time>2000-01-01T21:52:33.000Z</time>
      </trkpt>
      <trkpt lat="44.50263" lon="2.98485">
        <ele>742.5</ele>
        <time>2000-01-01T21:52:43.000Z</time>
      </trkpt>
      <trkpt lat="44.50263" lon="2.98484">
        <ele>742.6</ele>
        <time>2000-01-01T21:52:53.000Z</time>
      </trkpt>
      <trkpt lat="44.50259" lon="2.98489">
        <ele>739</ele>
        <time>2000-01-01T21:53:03.000Z</time>
      </trkpt>
      <trkpt lat="44.50259" lon="2.98486">
        <ele>741.3</ele>
        <time>2000-01-01T21:53:13.000Z</time>
      </trkpt>
      <trkpt lat="44.50258" lon="2.98484">
        <ele>741.1</ele>
        <time>2000-01-01T21:53:23.000Z</time>
      </trkpt>
      <trkpt lat="44.50262" lon="2.985">
        <ele>741.3</ele>
        <time>2000-01-01T21:53:33.000Z</time>
      </trkpt>
      <trkpt lat="44.5026" lon="2.98503">
        <ele>740</ele>
        <time>2000-01-01T21:53:43.000Z</time>
      </trkpt>
      <trkpt lat="44.50246" lon="2.98486">
        <ele>736</ele>
        <time>2000-01-01T21:53:53.000Z</time>
      </trkpt>
      <trkpt lat="44.5024" lon="2.98475">
        <ele>736.1</ele>
        <time>2000-01-01T21:54:03.000Z</time>
      </trkpt>
      <trkpt lat="44.50237" lon="2.98467">
        <ele>735.4</ele>
        <time>2000-01-01T21:54:13.000Z</time>
      </trkpt>
      <trkpt lat="44.5023" lon="2.98454">
        <ele>730</ele>
        <time>2000-01-01T21:54:23.000Z</time>
      </trkpt>
      <trkpt lat="44.50228" lon="2.98448">
        <ele>732.8</ele>
        <time>2000-01-01T21:54:33.000Z</time>
      </trkpt>
      <trkpt lat="44.50228" lon="2.98437">
        <ele>731.7</ele>
        <time>2000-01-01T21:54:43.000Z</time>
      </trkpt>
      <trkpt lat="44.50229" lon="2.98431">
        <ele>731</ele>
        <time>2000-01-01T21:54:53.000Z</time>
      </trkpt>
      <trkpt lat="44.50225" lon="2.98431">
        <ele>729</ele>
        <time>2000-01-01T21:55:03.000Z</time>
      </trkpt>
      <trkpt lat="44.5022" lon="2.98435">
        <ele>729</ele>
        <time>2000-01-01T21:55:13.000Z</time>
      </trkpt>
      <trkpt lat="44.50201" lon="2.98428">
        <ele>721</ele>
        <time>2000-01-01T21:55:23.000Z</time>
      </trkpt>
      <trkpt lat="44.50197" lon="2.98426">
        <ele>721.4</ele>
        <time>2000-01-01T21:55:33.000Z</time>
      </trkpt>
      <trkpt lat="44.50191" lon="2.98421">
        <ele>718.6</ele>
        <time>2000-01-01T21:55:43.000Z</time>
      </trkpt>
      <trkpt lat="44.50186" lon="2.9842">
        <ele>716</ele>
        <time>2000-01-01T21:55:53.000Z</time>
      </trkpt>
      <trkpt lat="44.5018" lon="2.9842">
        <ele>706</ele>
        <time>2000-01-01T21:56:03.000Z</time>
      </trkpt>
      <trkpt lat="44.50174" lon="2.98421">
        <ele>710.1</ele>
        <time>2000-01-01T21:56:13.000Z</time>
      </trkpt>
      <trkpt lat="44.50168" lon="2.98428">
        <ele>707.9</ele>
        <time>2000-01-01T21:56:23.000Z</time>
      </trkpt>
      <trkpt lat="44.50162" lon="2.98443">
        <ele>704</ele>
        <time>2000-01-01T21:56:33.000Z</time>
      </trkpt>
      <trkpt lat="44.50159" lon="2.98454">
        <ele>704.7</ele>
        <time>2000-01-01T21:56:43.000Z</time>
      </trkpt>
      <trkpt lat="44.50158" lon="2.9846">
        <ele>704.2</ele>
        <time>2000-01-01T21:56:53.000Z</time>
      </trkpt>
      <trkpt lat="44.50158" lon="2.98466">
        <ele>704.3</ele>
        <time>2000-01-01T21:57:03.000Z</time>
      </trkpt>
      <trkpt lat="44.50157" lon="2.98478">
        <ele>700</ele>
        <time>2000-01-01T21:57:13.000Z</time>
      </trkpt>
      <trkpt lat="44.50157" lon="2.98489">
        <ele>702.6</ele>
        <time>2000-01-01T21:57:23.000Z</time>
      </trkpt>
      <trkpt lat="44.50155" lon="2.985">
        <ele>700.7</ele>
        <time>2000-01-01T21:57:33.000Z</time>
      </trkpt>
      <trkpt lat="44.50151" lon="2.98513">
        <ele>697</ele>
        <time>2000-01-01T21:57:43.000Z</time>
      </trkpt>
      <trkpt lat="44.50149" lon="2.98525">
        <ele>694.3</ele>
        <time>2000-01-01T21:57:53.000Z</time>
      </trkpt>
      <trkpt lat="44.5015" lon="2.98537">
        <ele>693.8</ele>
        <time>2000-01-01T21:58:03.000Z</time>
      </trkpt>
      <trkpt lat="44.50146" lon="2.9854">
        <ele>689</ele>
        <time>2000-01-01T21:58:13.000Z</time>
      </trkpt>
      <trkpt lat="44.50143" lon="2.98537">
        <ele>691.2</ele>
        <time>2000-01-01T21:58:23.000Z</time>
      </trkpt>
      <trkpt lat="44.50139" lon="2.98529">
        <ele>690</ele>
        <time>2000-01-01T21:58:33.000Z</time>
      </trkpt>
      <trkpt lat="44.50135" lon="2.98519">
        <ele>689.4</ele>
        <time>2000-01-01T21:58:43.000Z</time>
      </trkpt>
      <trkpt lat="44.50124" lon="2.98485">
        <ele>686</ele>
        <time>2000-01-01T21:58:53.000Z</time>
      </trkpt>
      <trkpt lat="44.50118" lon="2.98469">
        <ele>686.5</ele>
        <time>2000-01-01T21:59:03.000Z</time>
      </trkpt>
      <trkpt lat="44.50112" lon="2.98439">
        <ele>682</ele>
        <time>2000-01-01T21:59:13.000Z</time>
      </trkpt>
      <trkpt lat="44.50107" lon="2.98425">
        <ele>681.8</ele>
        <time>2000-01-01T21:59:23.000Z</time>
      </trkpt>
      <trkpt lat="44.501" lon="2.98409">
        <ele>676</ele>
        <time>2000-01-01T21:59:33.000Z</time>
      </trkpt>
      <trkpt lat="44.50093" lon="2.98396">
        <ele>676.4</ele>
        <time>2000-01-01T21:59:43.000Z</time>
      </trkpt>
      <trkpt lat="44.50079" lon="2.98383">
        <ele>672</ele>
        <time>2000-01-01T21:59:53.000Z</time>
      </trkpt>
      <trkpt lat="44.50072" lon="2.98378">
        <ele>672.7</ele>
        <time>2000-01-01T22:00:03.000Z</time>
      </trkpt>
      <trkpt lat="44.50068" lon="2.98378">
        <ele>672.9</ele>
        <time>2000-01-01T22:00:13.000Z</time>
      </trkpt>
      <trkpt lat="44.50059" lon="2.98373">
        <ele>672</ele>
        <time>2000-01-01T22:00:23.000Z</time>
      </trkpt>
      <trkpt lat="44.50029" lon="2.98347">
        <ele>669</ele>
        <time>2000-01-01T22:00:33.000Z</time>
      </trkpt>
      <trkpt lat="44.50012" lon="2.98337">
        <ele>670.1</ele>
        <time>2000-01-01T22:00:43.000Z</time>
      </trkpt>
      <trkpt lat="44.49991" lon="2.98317">
        <ele>668</ele>
        <time>2000-01-01T22:00:53.000Z</time>
      </trkpt>
      <trkpt lat="44.49989" lon="2.98312">
        <ele>669.2</ele>
        <time>2000-01-01T22:01:03.000Z</time>
      </trkpt>
      <trkpt lat="44.49965" lon="2.98284">
        <ele>668</ele>
        <time>2000-01-01T22:01:13.000Z</time>
      </trkpt>
      <trkpt lat="44.49944" lon="2.9827">
        <ele>669</ele>
        <time>2000-01-01T22:01:23.000Z</time>
      </trkpt>
      <trkpt lat="44.49939" lon="2.98268">
        <ele>669.3</ele>
        <time>2000-01-01T22:01:33.000Z</time>
      </trkpt>
      <trkpt lat="44.49941" lon="2.98268">
        <ele>668.9</ele>
        <time>2000-01-01T22:01:43.000Z</time>
      </trkpt>
      <trkpt lat="44.49938" lon="2.98266">
        <ele>669.2</ele>
        <time>2000-01-01T22:01:53.000Z</time>
      </trkpt>
      <trkpt lat="44.49934" lon="2.98264">
        <ele>669.6</ele>
        <time>2000-01-01T22:02:03.000Z</time>
      </trkpt>
      <trkpt lat="44.49928" lon="2.98263">
        <ele>668</ele>
        <time>2000-01-01T22:02:13.000Z</time>
      </trkpt>
      <trkpt lat="44.49945" lon="2.98267">
        <ele>668</ele>
        <time>2000-01-01T22:02:23.000Z</time>
      </trkpt>
      <trkpt lat="44.49956" lon="2.98271">
        <ele>667</ele>
        <time>2000-01-01T22:02:33.000Z</time>
      </trkpt>
      <trkpt lat="44.49973" lon="2.98286">
        <ele>668</ele>
        <time>2000-01-01T22:02:43.000Z</time>
      </trkpt>
      <trkpt lat="44.49981" lon="2.983">
        <ele>668.4</ele>
        <time>2000-01-01T22:02:53.000Z</time>
      </trkpt>
      <trkpt lat="44.4998" lon="2.98303">
        <ele>669.1</ele>
        <time>2000-01-01T22:03:03.000Z</time>
      </trkpt>
      <trkpt lat="44.49979" lon="2.98304">
        <ele>669.5</ele>
        <time>2000-01-01T22:03:13.000Z</time>
      </trkpt>
      <trkpt lat="44.49976" lon="2.98303">
        <ele>669</ele>
        <time>2000-01-01T22:03:23.000Z</time>
      </trkpt>
      <trkpt lat="44.49973" lon="2.98303">
        <ele>670.3</ele>
        <time>2000-01-01T22:03:33.000Z</time>
      </trkpt>
      <trkpt lat="44.49974" lon="2.98304">
        <ele>670.4</ele>
        <time>2000-01-01T22:03:43.000Z</time>
      </trkpt>
      <trkpt lat="44.49955" lon="2.98287">
        <ele>669</ele>
        <time>2000-01-01T22:03:53.000Z</time>
      </trkpt>
      <trkpt lat="44.49951" lon="2.98287">
        <ele>671.1</ele>
        <time>2000-01-01T22:04:03.000Z</time>
      </trkpt>
      <trkpt lat="44.49946" lon="2.98285">
        <ele>671.5</ele>
        <time>2000-01-01T22:04:13.000Z</time>
      </trkpt>
      <trkpt lat="44.49926" lon="2.9828">
        <ele>672</ele>
        <time>2000-01-01T22:04:23.000Z</time>
      </trkpt>
      <trkpt lat="44.49924" lon="2.98282">
        <ele>675.5</ele>
        <time>2000-01-01T22:04:33.000Z</time>
      </trkpt>
      <trkpt lat="44.49923" lon="2.98284">
        <ele>676.2</ele>
        <time>2000-01-01T22:04:43.000Z</time>
      </trkpt>
      <trkpt lat="44.49928" lon="2.98288">
        <ele>676.1</ele>
        <time>2000-01-01T22:04:53.000Z</time>
      </trkpt>
      <trkpt lat="44.49945" lon="2.98306">
        <ele>675</ele>
        <time>2000-01-01T22:05:03.000Z</time>
      </trkpt>
      <trkpt lat="44.4995" lon="2.98314">
        <ele>678.1</ele>
        <time>2000-01-01T22:05:13.000Z</time>
      </trkpt>
      <trkpt lat="44.49955" lon="2.9832">
        <ele>678.5</ele>
        <time>2000-01-01T22:05:23.000Z</time>
      </trkpt>
      <trkpt lat="44.49956" lon="2.98325">
        <ele>679.5</ele>
        <time>2000-01-01T22:05:33.000Z</time>
      </trkpt>
      <trkpt lat="44.49961" lon="2.9833">
        <ele>677</ele>
        <time>2000-01-01T22:05:43.000Z</time>
      </trkpt>
      <trkpt lat="44.49989" lon="2.98371">
        <ele>681</ele>
        <time>2000-01-01T22:05:53.000Z</time>
      </trkpt>
      <trkpt lat="44.50004" lon="2.98386">
        <ele>686.1</ele>
        <time>2000-01-01T22:06:03.000Z</time>
      </trkpt>
      <trkpt lat="44.50014" lon="2.98393">
        <ele>685</ele>
        <time>2000-01-01T22:06:13.000Z</time>
      </trkpt>
      <trkpt lat="44.50021" lon="2.98404">
        <ele>688.6</ele>
        <time>2000-01-01T22:06:23.000Z</time>
      </trkpt>
      <trkpt lat="44.50027" lon="2.98409">
        <ele>688.7</ele>
        <time>2000-01-01T22:06:33.000Z</time>
      </trkpt>
      <trkpt lat="44.50031" lon="2.98418">
        <ele>687</ele>
        <time>2000-01-01T22:06:43.000Z</time>
      </trkpt>
      <trkpt lat="44.50032" lon="2.98422">
        <ele>691.4</ele>
        <time>2000-01-01T22:06:53.000Z</time>
      </trkpt>
      <trkpt lat="44.50035" lon="2.98426">
        <ele>691.8</ele>
        <time>2000-01-01T22:07:03.000Z</time>
      </trkpt>
      <trkpt lat="44.50037" lon="2.98436">
        <ele>694</ele>
        <time>2000-01-01T22:07:13.000Z</time>
      </trkpt>
      <trkpt lat="44.50037" lon="2.98443">
        <ele>696</ele>
        <time>2000-01-01T22:07:23.000Z</time>
      </trkpt>
      <trkpt lat="44.50042" lon="2.9845">
        <ele>695.8</ele>
        <time>2000-01-01T22:07:33.000Z</time>
      </trkpt>
      <trkpt lat="44.50042" lon="2.98452">
        <ele>696.1</ele>
        <time>2000-01-01T22:07:43.000Z</time>
      </trkpt>
      <trkpt lat="44.5004" lon="2.98456">
        <ele>697.4</ele>
        <time>2000-01-01T22:07:53.000Z</time>
      </trkpt>
      <trkpt lat="44.5004" lon="2.98464">
        <ele>698.7</ele>
        <time>2000-01-01T22:08:03.000Z</time>
      </trkpt>
      <trkpt lat="44.50043" lon="2.98474">
        <ele>700</ele>
        <time>2000-01-01T22:08:13.000Z</time>
      </trkpt>
      <trkpt lat="44.50043" lon="2.98479">
        <ele>699.5</ele>
        <time>2000-01-01T22:08:23.000Z</time>
      </trkpt>
      <trkpt lat="44.50042" lon="2.98485">
        <ele>700.3</ele>
        <time>2000-01-01T22:08:33.000Z</time>
      </trkpt>
      <trkpt lat="44.50042" lon="2.98489">
        <ele>700.6</ele>
        <time>2000-01-01T22:08:43.000Z</time>
      </trkpt>
      <trkpt lat="44.50039" lon="2.98498">
        <ele>702.6</ele>
        <time>2000-01-01T22:08:53.000Z</time>
      </trkpt>
      <trkpt lat="44.50039" lon="2.98501">
        <ele>706</ele>
        <time>2000-01-01T22:09:03.000Z</time>
      </trkpt>
      <trkpt lat="44.50042" lon="2.9851">
        <ele>701.3</ele>
        <time>2000-01-01T22:09:13.000Z</time>
      </trkpt>
      <trkpt lat="44.50036" lon="2.98528">
        <ele>706</ele>
        <time>2000-01-01T22:09:23.000Z</time>
      </trkpt>
      <trkpt lat="44.50037" lon="2.98535">
        <ele>704.1</ele>
        <time>2000-01-01T22:09:33.000Z</time>
      </trkpt>
      <trkpt lat="44.50037" lon="2.98545">
        <ele>703.7</ele>
        <time>2000-01-01T22:09:43.000Z</time>
      </trkpt>
      <trkpt lat="44.50031" lon="2.98566">
        <ele>706</ele>
        <time>2000-01-01T22:09:53.000Z</time>
      </trkpt>
      <trkpt lat="44.5003" lon="2.98577">
        <ele>706.8</ele>
        <time>2000-01-01T22:10:03.000Z</time>
      </trkpt>
      <trkpt lat="44.50021" lon="2.98604">
        <ele>713</ele>
        <time>2000-01-01T22:10:13.000Z</time>
      </trkpt>
      <trkpt lat="44.50018" lon="2.98628">
        <ele>712.8</ele>
        <time>2000-01-01T22:10:23.000Z</time>
      </trkpt>
      <trkpt lat="44.50019" lon="2.98642">
        <ele>717</ele>
        <time>2000-01-01T22:10:33.000Z</time>
      </trkpt>
      <trkpt lat="44.50017" lon="2.98647">
        <ele>713.4</ele>
        <time>2000-01-01T22:10:43.000Z</time>
      </trkpt>
      <trkpt lat="44.50018" lon="2.9866">
        <ele>712.7</ele>
        <time>2000-01-01T22:10:53.000Z</time>
      </trkpt>
      <trkpt lat="44.50015" lon="2.98668">
        <ele>717</ele>
        <time>2000-01-01T22:11:03.000Z</time>
      </trkpt>
      <trkpt lat="44.50013" lon="2.98711">
        <ele>718</ele>
        <time>2000-01-01T22:11:13.000Z</time>
      </trkpt>
      <trkpt lat="44.50013" lon="2.98726">
        <ele>717.2</ele>
        <time>2000-01-01T22:11:23.000Z</time>
      </trkpt>
      <trkpt lat="44.50011" lon="2.98752">
        <ele>720</ele>
        <time>2000-01-01T22:11:33.000Z</time>
      </trkpt>
      <trkpt lat="44.50009" lon="2.98763">
        <ele>721.3</ele>
        <time>2000-01-01T22:11:43.000Z</time>
      </trkpt>
      <trkpt lat="44.50006" lon="2.98812">
        <ele>726</ele>
        <time>2000-01-01T22:11:53.000Z</time>
      </trkpt>
      <trkpt lat="44.50004" lon="2.98825">
        <ele>725.3</ele>
        <time>2000-01-01T22:12:03.000Z</time>
      </trkpt>
      <trkpt lat="44.50002" lon="2.98853">
        <ele>727</ele>
        <time>2000-01-01T22:12:13.000Z</time>
      </trkpt>
      <trkpt lat="44.50002" lon="2.98868">
        <ele>727.2</ele>
        <time>2000-01-01T22:12:23.000Z</time>
      </trkpt>
      <trkpt lat="44.5" lon="2.98879">
        <ele>727.4</ele>
        <time>2000-01-01T22:12:33.000Z</time>
      </trkpt>
      <trkpt lat="44.49996" lon="2.98888">
        <ele>727</ele>
        <time>2000-01-01T22:12:43.000Z</time>
      </trkpt>
      <trkpt lat="44.49993" lon="2.98888">
        <ele>726.3</ele>
        <time>2000-01-01T22:12:53.000Z</time>
      </trkpt>
      <trkpt lat="44.49989" lon="2.98881">
        <ele>726.8</ele>
        <time>2000-01-01T22:13:03.000Z</time>
      </trkpt>
      <trkpt lat="44.49987" lon="2.98873">
        <ele>727.8</ele>
        <time>2000-01-01T22:13:13.000Z</time>
      </trkpt>
      <trkpt lat="44.49985" lon="2.9887">
        <ele>728.3</ele>
        <time>2000-01-01T22:13:23.000Z</time>
      </trkpt>
      <trkpt lat="44.49984" lon="2.98866">
        <ele>731</ele>
        <time>2000-01-01T22:13:33.000Z</time>
      </trkpt>
      <trkpt lat="44.49975" lon="2.98841">
        <ele>736</ele>
        <time>2000-01-01T22:13:43.000Z</time>
      </trkpt>
      <trkpt lat="44.49972" lon="2.98834">
        <ele>736.9</ele>
        <time>2000-01-01T22:13:53.000Z</time>
      </trkpt>
      <trkpt lat="44.49966" lon="2.98828">
        <ele>738.4</ele>
        <time>2000-01-01T22:14:03.000Z</time>
      </trkpt>
      <trkpt lat="44.49962" lon="2.98827">
        <ele>739.1</ele>
        <time>2000-01-01T22:14:13.000Z</time>
      </trkpt>
      <trkpt lat="44.49944" lon="2.98828">
        <ele>743</ele>
        <time>2000-01-01T22:14:23.000Z</time>
      </trkpt>
      <trkpt lat="44.49941" lon="2.98829">
        <ele>740.2</ele>
        <time>2000-01-01T22:14:33.000Z</time>
      </trkpt>
      <trkpt lat="44.4993" lon="2.98826">
        <ele>740.6</ele>
        <time>2000-01-01T22:14:43.000Z</time>
      </trkpt>
      <trkpt lat="44.49921" lon="2.98811">
        <ele>746</ele>
        <time>2000-01-01T22:14:53.000Z</time>
      </trkpt>
      <trkpt lat="44.49919" lon="2.98801">
        <ele>749.3</ele>
        <time>2000-01-01T22:15:03.000Z</time>
      </trkpt>
      <trkpt lat="44.49916" lon="2.98799">
        <ele>749.8</ele>
        <time>2000-01-01T22:15:13.000Z</time>
      </trkpt>
      <trkpt lat="44.49916" lon="2.98797">
        <ele>750.4</ele>
        <time>2000-01-01T22:15:23.000Z</time>
      </trkpt>
      <trkpt lat="44.49912" lon="2.98793">
        <ele>751.1</ele>
        <time>2000-01-01T22:15:33.000Z</time>
      </trkpt>
      <trkpt lat="44.49912" lon="2.9879">
        <ele>752</ele>
        <time>2000-01-01T22:15:43.000Z</time>
      </trkpt>
      <trkpt lat="44.4991" lon="2.98788">
        <ele>755</ele>
        <time>2000-01-01T22:15:53.000Z</time>
      </trkpt>
      <trkpt lat="44.49909" lon="2.98781">
        <ele>754.5</ele>
        <time>2000-01-01T22:16:03.000Z</time>
      </trkpt>
      <trkpt lat="44.49904" lon="2.98776">
        <ele>755.6</ele>
        <time>2000-01-01T22:16:13.000Z</time>
      </trkpt>
      <trkpt lat="44.49896" lon="2.98775">
        <ele>756</ele>
        <time>2000-01-01T22:16:23.000Z</time>
      </trkpt>
      <trkpt lat="44.49889" lon="2.98772">
        <ele>755.9</ele>
        <time>2000-01-01T22:16:33.000Z</time>
      </trkpt>
      <trkpt lat="44.49884" lon="2.98765">
        <ele>757.5</ele>
        <time>2000-01-01T22:16:43.000Z</time>
      </trkpt>
      <trkpt lat="44.49883" lon="2.98763">
        <ele>758.1</ele>
        <time>2000-01-01T22:16:53.000Z</time>
      </trkpt>
      <trkpt lat="44.49884" lon="2.98756">
        <ele>762</ele>
        <time>2000-01-01T22:17:03.000Z</time>
      </trkpt>
      <trkpt lat="44.49883" lon="2.98753">
        <ele>761.5</ele>
        <time>2000-01-01T22:17:13.000Z</time>
      </trkpt>
      <trkpt lat="44.49885" lon="2.98737">
        <ele>765.8</ele>
        <time>2000-01-01T22:17:23.000Z</time>
      </trkpt>
      <trkpt lat="44.49887" lon="2.98732">
        <ele>766.9</ele>
        <time>2000-01-01T22:17:33.000Z</time>
      </trkpt>
      <trkpt lat="44.49887" lon="2.9873">
        <ele>770</ele>
        <time>2000-01-01T22:17:43.000Z</time>
      </trkpt>
      <trkpt lat="44.49878" lon="2.98702">
        <ele>775</ele>
        <time>2000-01-01T22:17:53.000Z</time>
      </trkpt>
      <trkpt lat="44.49875" lon="2.98697">
        <ele>775.4</ele>
        <time>2000-01-01T22:18:03.000Z</time>
      </trkpt>
      <trkpt lat="44.49868" lon="2.98689">
        <ele>777.7</ele>
        <time>2000-01-01T22:18:13.000Z</time>
      </trkpt>
      <trkpt lat="44.49863" lon="2.98682">
        <ele>780</ele>
        <time>2000-01-01T22:18:23.000Z</time>
      </trkpt>
      <trkpt lat="44.49861" lon="2.98677">
        <ele>780.5</ele>
        <time>2000-01-01T22:18:33.000Z</time>
      </trkpt>
      <trkpt lat="44.49852" lon="2.98664">
        <ele>782.9</ele>
        <time>2000-01-01T22:18:43.000Z</time>
      </trkpt>
      <trkpt lat="44.49845" lon="2.98651">
        <ele>786</ele>
        <time>2000-01-01T22:18:53.000Z</time>
      </trkpt>
      <trkpt lat="44.49821" lon="2.98613">
        <ele>792</ele>
        <time>2000-01-01T22:19:03.000Z</time>
      </trkpt>
      <trkpt lat="44.49799" lon="2.98593">
        <ele>792</ele>
        <time>2000-01-01T22:19:13.000Z</time>
      </trkpt>
      <trkpt lat="44.49781" lon="2.9858">
        <ele>792</ele>
        <time>2000-01-01T22:19:23.000Z</time>
      </trkpt>
      <trkpt lat="44.49766" lon="2.98566">
        <ele>791.7</ele>
        <time>2000-01-01T22:19:33.000Z</time>
      </trkpt>
      <trkpt lat="44.49752" lon="2.98549">
        <ele>792</ele>
        <time>2000-01-01T22:19:43.000Z</time>
      </trkpt>
      <trkpt lat="44.49724" lon="2.98518">
        <ele>791</ele>
        <time>2000-01-01T22:19:53.000Z</time>
      </trkpt>
      <trkpt lat="44.49713" lon="2.98508">
        <ele>791.1</ele>
        <time>2000-01-01T22:20:03.000Z</time>
      </trkpt>
      <trkpt lat="44.49704" lon="2.98504">
        <ele>790</ele>
        <time>2000-01-01T22:20:13.000Z</time>
      </trkpt>
      <trkpt lat="44.49683" lon="2.98501">
        <ele>789</ele>
        <time>2000-01-01T22:20:23.000Z</time>
      </trkpt>
      <trkpt lat="44.49654" lon="2.98492">
        <ele>786</ele>
        <time>2000-01-01T22:20:33.000Z</time>
      </trkpt>
      <trkpt lat="44.49638" lon="2.9848">
        <ele>786.1</ele>
        <time>2000-01-01T22:20:43.000Z</time>
      </trkpt>
      <trkpt lat="44.4963" lon="2.98479">
        <ele>784</ele>
        <time>2000-01-01T22:20:53.000Z</time>
      </trkpt>
      <trkpt lat="44.49616" lon="2.98469">
        <ele>784.7</ele>
        <time>2000-01-01T22:21:03.000Z</time>
      </trkpt>
      <trkpt lat="44.49596" lon="2.98462">
        <ele>784</ele>
        <time>2000-01-01T22:21:13.000Z</time>
      </trkpt>
      <trkpt lat="44.49581" lon="2.98453">
        <ele>783.6</ele>
        <time>2000-01-01T22:21:23.000Z</time>
      </trkpt>
      <trkpt lat="44.49556" lon="2.98445">
        <ele>783</ele>
        <time>2000-01-01T22:21:33.000Z</time>
      </trkpt>
      <trkpt lat="44.49545" lon="2.98443">
        <ele>782.6</ele>
        <time>2000-01-01T22:21:43.000Z</time>
      </trkpt>
      <trkpt lat="44.49536" lon="2.98439">
        <ele>783</ele>
        <time>2000-01-01T22:21:53.000Z</time>
      </trkpt>
      <trkpt lat="44.49502" lon="2.98433">
        <ele>782</ele>
        <time>2000-01-01T22:22:03.000Z</time>
      </trkpt>
      <trkpt lat="44.49486" lon="2.98428">
        <ele>781.5</ele>
        <time>2000-01-01T22:22:13.000Z</time>
      </trkpt>
      <trkpt lat="44.49466" lon="2.98419">
        <ele>782</ele>
        <time>2000-01-01T22:22:23.000Z</time>
      </trkpt>
      <trkpt lat="44.49463" lon="2.98419">
        <ele>781.7</ele>
        <time>2000-01-01T22:22:33.000Z</time>
      </trkpt>
      <trkpt lat="44.49429" lon="2.98407">
        <ele>782</ele>
        <time>2000-01-01T22:22:43.000Z</time>
      </trkpt>
      <trkpt lat="44.49406" lon="2.98404">
        <ele>782</ele>
        <time>2000-01-01T22:22:53.000Z</time>
      </trkpt>
      <trkpt lat="44.49398" lon="2.98402">
        <ele>784.5</ele>
        <time>2000-01-01T22:23:03.000Z</time>
      </trkpt>
      <trkpt lat="44.4938" lon="2.98395">
        <ele>782</ele>
        <time>2000-01-01T22:23:13.000Z</time>
      </trkpt>
      <trkpt lat="44.49364" lon="2.98387">
        <ele>781.9</ele>
        <time>2000-01-01T22:23:23.000Z</time>
      </trkpt>
      <trkpt lat="44.49357" lon="2.98386">
        <ele>780</ele>
        <time>2000-01-01T22:23:33.000Z</time>
      </trkpt>
      <trkpt lat="44.49345" lon="2.98382">
        <ele>778.7</ele>
        <time>2000-01-01T22:23:43.000Z</time>
      </trkpt>
      <trkpt lat="44.49337" lon="2.98377">
        <ele>777</ele>
        <time>2000-01-01T22:23:53.000Z</time>
      </trkpt>
      <trkpt lat="44.49314" lon="2.98365">
        <ele>773</ele>
        <time>2000-01-01T22:24:03.000Z</time>
      </trkpt>
      <trkpt lat="44.49301" lon="2.98356">
        <ele>772.3</ele>
        <time>2000-01-01T22:24:13.000Z</time>
      </trkpt>
      <trkpt lat="44.49294" lon="2.98352">
        <ele>770</ele>
        <time>2000-01-01T22:24:23.000Z</time>
      </trkpt>
      <trkpt lat="44.49287" lon="2.98347">
        <ele>769.6</ele>
        <time>2000-01-01T22:24:33.000Z</time>
      </trkpt>
      <trkpt lat="44.49283" lon="2.98343">
        <ele>769.2</ele>
        <time>2000-01-01T22:24:43.000Z</time>
      </trkpt>
      <trkpt lat="44.49242" lon="2.98317">
        <ele>771</ele>
        <time>2000-01-01T22:24:53.000Z</time>
      </trkpt>
      <trkpt lat="44.49209" lon="2.98284">
        <ele>771</ele>
        <time>2000-01-01T22:25:03.000Z</time>
      </trkpt>
      <trkpt lat="44.49198" lon="2.98275">
        <ele>772.9</ele>
        <time>2000-01-01T22:25:13.000Z</time>
      </trkpt>
      <trkpt lat="44.49188" lon="2.98269">
        <ele>771</ele>
        <time>2000-01-01T22:25:23.000Z</time>
      </trkpt>
      <trkpt lat="44.49171" lon="2.98249">
        <ele>771</ele>
        <time>2000-01-01T22:25:33.000Z</time>
      </trkpt>
      <trkpt lat="44.49162" lon="2.98244">
        <ele>771.3</ele>
        <time>2000-01-01T22:25:43.000Z</time>
      </trkpt>
      <trkpt lat="44.49154" lon="2.98241">
        <ele>769.9</ele>
        <time>2000-01-01T22:25:53.000Z</time>
      </trkpt>
      <trkpt lat="44.49128" lon="2.98228">
        <ele>764</ele>
        <time>2000-01-01T22:26:03.000Z</time>
      </trkpt>
      <trkpt lat="44.49113" lon="2.98225">
        <ele>762.9</ele>
        <time>2000-01-01T22:26:13.000Z</time>
      </trkpt>
      <trkpt lat="44.49095" lon="2.98226">
        <ele>759</ele>
        <time>2000-01-01T22:26:23.000Z</time>
      </trkpt>
      <trkpt lat="44.49075" lon="2.98225">
        <ele>757</ele>
        <time>2000-01-01T22:26:33.000Z</time>
      </trkpt>
      <trkpt lat="44.49051" lon="2.98229">
        <ele>754</ele>
        <time>2000-01-01T22:26:43.000Z</time>
      </trkpt>
      <trkpt lat="44.49038" lon="2.9823">
        <ele>751.4</ele>
        <time>2000-01-01T22:26:53.000Z</time>
      </trkpt>
      <trkpt lat="44.49021" lon="2.98237">
        <ele>751</ele>
        <time>2000-01-01T22:27:03.000Z</time>
      </trkpt>
      <trkpt lat="44.48999" lon="2.98242">
        <ele>751</ele>
        <time>2000-01-01T22:27:13.000Z</time>
      </trkpt>
      <trkpt lat="44.4898" lon="2.98244">
        <ele>750.3</ele>
        <time>2000-01-01T22:27:23.000Z</time>
      </trkpt>
      <trkpt lat="44.48959" lon="2.98243">
        <ele>748</ele>
        <time>2000-01-01T22:27:33.000Z</time>
      </trkpt>
      <trkpt lat="44.48941" lon="2.98247">
        <ele>749.9</ele>
        <time>2000-01-01T22:27:43.000Z</time>
      </trkpt>
      <trkpt lat="44.48938" lon="2.98247">
        <ele>748</ele>
        <time>2000-01-01T22:27:53.000Z</time>
      </trkpt>
      <trkpt lat="44.48917" lon="2.9826">
        <ele>748</ele>
        <time>2000-01-01T22:28:03.000Z</time>
      </trkpt>
      <trkpt lat="44.48904" lon="2.98267">
        <ele>750.2</ele>
        <time>2000-01-01T22:28:13.000Z</time>
      </trkpt>
      <trkpt lat="44.48891" lon="2.98269">
        <ele>748</ele>
        <time>2000-01-01T22:28:23.000Z</time>
      </trkpt>
      <trkpt lat="44.4888" lon="2.98272">
        <ele>748.7</ele>
        <time>2000-01-01T22:28:33.000Z</time>
      </trkpt>
      <trkpt lat="44.48864" lon="2.98274">
        <ele>745</ele>
        <time>2000-01-01T22:28:43.000Z</time>
      </trkpt>
      <trkpt lat="44.48858" lon="2.98274">
        <ele>746.2</ele>
        <time>2000-01-01T22:28:53.000Z</time>
      </trkpt>
      <trkpt lat="44.48841" lon="2.98277">
        <ele>740</ele>
        <time>2000-01-01T22:29:03.000Z</time>
      </trkpt>
      <trkpt lat="44.48833" lon="2.98277">
        <ele>739.7</ele>
        <time>2000-01-01T22:29:13.000Z</time>
      </trkpt>
      <trkpt lat="44.48823" lon="2.98272">
        <ele>735.4</ele>
        <time>2000-01-01T22:29:23.000Z</time>
      </trkpt>
      <trkpt lat="44.48815" lon="2.98269">
        <ele>729</ele>
        <time>2000-01-01T22:29:33.000Z</time>
      </trkpt>
      <trkpt lat="44.48809" lon="2.98269">
        <ele>730.2</ele>
        <time>2000-01-01T22:29:43.000Z</time>
      </trkpt>
      <trkpt lat="44.48797" lon="2.98263">
        <ele>725.4</ele>
        <time>2000-01-01T22:29:53.000Z</time>
      </trkpt>
      <trkpt lat="44.48786" lon="2.98261">
        <ele>719</ele>
        <time>2000-01-01T22:30:03.000Z</time>
      </trkpt>
      <trkpt lat="44.48774" lon="2.98251">
        <ele>717.7</ele>
        <time>2000-01-01T22:30:13.000Z</time>
      </trkpt>
      <trkpt lat="44.48769" lon="2.9825">
        <ele>716.2</ele>
        <time>2000-01-01T22:30:23.000Z</time>
      </trkpt>
      <trkpt lat="44.48762" lon="2.98251">
        <ele>713</ele>
        <time>2000-01-01T22:30:33.000Z</time>
      </trkpt>
      <trkpt lat="44.4876" lon="2.9825">
        <ele>713.2</ele>
        <time>2000-01-01T22:30:43.000Z</time>
      </trkpt>
      <trkpt lat="44.48758" lon="2.9825">
        <ele>712.6</ele>
        <time>2000-01-01T22:30:53.000Z</time>
      </trkpt>
      <trkpt lat="44.48752" lon="2.98246">
        <ele>710.1</ele>
        <time>2000-01-01T22:31:03.000Z</time>
      </trkpt>
      <trkpt lat="44.48747" lon="2.98245">
        <ele>708.3</ele>
        <time>2000-01-01T22:31:13.000Z</time>
      </trkpt>
      <trkpt lat="44.48727" lon="2.98238">
        <ele>699</ele>
        <time>2000-01-01T22:31:23.000Z</time>
      </trkpt>
      <trkpt lat="44.48715" lon="2.9823">
        <ele>697.3</ele>
        <time>2000-01-01T22:31:33.000Z</time>
      </trkpt>
      <trkpt lat="44.48704" lon="2.98225">
        <ele>694</ele>
        <time>2000-01-01T22:31:43.000Z</time>
      </trkpt>
      <trkpt lat="44.48697" lon="2.98223">
        <ele>693.4</ele>
        <time>2000-01-01T22:31:53.000Z</time>
      </trkpt>
      <trkpt lat="44.4869" lon="2.98218">
        <ele>691.1</ele>
        <time>2000-01-01T22:32:03.000Z</time>
      </trkpt>
      <trkpt lat="44.48672" lon="2.98216">
        <ele>687</ele>
        <time>2000-01-01T22:32:13.000Z</time>
      </trkpt>
      <trkpt lat="44.48666" lon="2.98214">
        <ele>684.6</ele>
        <time>2000-01-01T22:32:23.000Z</time>
      </trkpt>
      <trkpt lat="44.48661" lon="2.98211">
        <ele>683.4</ele>
        <time>2000-01-01T22:32:33.000Z</time>
      </trkpt>
      <trkpt lat="44.48644" lon="2.98207">
        <ele>681</ele>
        <time>2000-01-01T22:32:43.000Z</time>
      </trkpt>
      <trkpt lat="44.48612" lon="2.98204">
        <ele>679</ele>
        <time>2000-01-01T22:32:53.000Z</time>
      </trkpt>
      <trkpt lat="44.48599" lon="2.98198">
        <ele>678.2</ele>
        <time>2000-01-01T22:33:03.000Z</time>
      </trkpt>
      <trkpt lat="44.48569" lon="2.98189">
        <ele>676</ele>
        <time>2000-01-01T22:33:13.000Z</time>
      </trkpt>
      <trkpt lat="44.48542" lon="2.98178">
        <ele>675</ele>
        <time>2000-01-01T22:33:23.000Z</time>
      </trkpt>
      <trkpt lat="44.48536" lon="2.98177">
        <ele>675.1</ele>
        <time>2000-01-01T22:33:33.000Z</time>
      </trkpt>
      <trkpt lat="44.48528" lon="2.98172">
        <ele>675</ele>
        <time>2000-01-01T22:33:43.000Z</time>
      </trkpt>
      <trkpt lat="44.48518" lon="2.98163">
        <ele>674</ele>
        <time>2000-01-01T22:33:53.000Z</time>
      </trkpt>
      <trkpt lat="44.48504" lon="2.98152">
        <ele>671.5</ele>
        <time>2000-01-01T22:34:03.000Z</time>
      </trkpt>
      <trkpt lat="44.48493" lon="2.98142">
        <ele>671</ele>
        <time>2000-01-01T22:34:13.000Z</time>
      </trkpt>
      <trkpt lat="44.4847" lon="2.98115">
        <ele>670</ele>
        <time>2000-01-01T22:34:23.000Z</time>
      </trkpt>
      <trkpt lat="44.48466" lon="2.98109">
        <ele>666.7</ele>
        <time>2000-01-01T22:34:33.000Z</time>
      </trkpt>
      <trkpt lat="44.48455" lon="2.98098">
        <ele>669</ele>
        <time>2000-01-01T22:34:43.000Z</time>
      </trkpt>
      <trkpt lat="44.48444" lon="2.98092">
        <ele>666.8</ele>
        <time>2000-01-01T22:34:53.000Z</time>
      </trkpt>
      <trkpt lat="44.48426" lon="2.98089">
        <ele>669</ele>
        <time>2000-01-01T22:35:03.000Z</time>
      </trkpt>
      <trkpt lat="44.48415" lon="2.98088">
        <ele>668.4</ele>
        <time>2000-01-01T22:35:13.000Z</time>
      </trkpt>
      <trkpt lat="44.48401" lon="2.9809">
        <ele>670</ele>
        <time>2000-01-01T22:35:23.000Z</time>
      </trkpt>
      <trkpt lat="44.48378" lon="2.98088">
        <ele>671</ele>
        <time>2000-01-01T22:35:33.000Z</time>
      </trkpt>
      <trkpt lat="44.48365" lon="2.98088">
        <ele>670.5</ele>
        <time>2000-01-01T22:35:43.000Z</time>
      </trkpt>
      <trkpt lat="44.48356" lon="2.98086">
        <ele>671</ele>
        <time>2000-01-01T22:35:53.000Z</time>
      </trkpt>
      <trkpt lat="44.48342" lon="2.98088">
        <ele>667.3</ele>
        <time>2000-01-01T22:36:03.000Z</time>
      </trkpt>
      <trkpt lat="44.48334" lon="2.98081">
        <ele>667</ele>
        <time>2000-01-01T22:36:13.000Z</time>
      </trkpt>
      <trkpt lat="44.48326" lon="2.98076">
        <ele>664.3</ele>
        <time>2000-01-01T22:36:23.000Z</time>
      </trkpt>
      <trkpt lat="44.48318" lon="2.98069">
        <ele>662.4</ele>
        <time>2000-01-01T22:36:33.000Z</time>
      </trkpt>
      <trkpt lat="44.48312" lon="2.98057">
        <ele>662</ele>
        <time>2000-01-01T22:36:43.000Z</time>
      </trkpt>
      <trkpt lat="44.48308" lon="2.98039">
        <ele>660.8</ele>
        <time>2000-01-01T22:36:53.000Z</time>
      </trkpt>
      <trkpt lat="44.48301" lon="2.98026">
        <ele>661</ele>
        <time>2000-01-01T22:37:03.000Z</time>
      </trkpt>
      <trkpt lat="44.48297" lon="2.98022">
        <ele>658.5</ele>
        <time>2000-01-01T22:37:13.000Z</time>
      </trkpt>
      <trkpt lat="44.48277" lon="2.98004">
        <ele>661</ele>
        <time>2000-01-01T22:37:23.000Z</time>
      </trkpt>
      <trkpt lat="44.48259" lon="2.97986">
        <ele>661</ele>
        <time>2000-01-01T22:37:33.000Z</time>
      </trkpt>
      <trkpt lat="44.48247" lon="2.97978">
        <ele>660.2</ele>
        <time>2000-01-01T22:37:43.000Z</time>
      </trkpt>
      <trkpt lat="44.48229" lon="2.9796">
        <ele>662</ele>
        <time>2000-01-01T22:37:53.000Z</time>
      </trkpt>
      <trkpt lat="44.48206" lon="2.97947">
        <ele>663</ele>
        <time>2000-01-01T22:38:03.000Z</time>
      </trkpt>
      <trkpt lat="44.48182" lon="2.97931">
        <ele>664</ele>
        <time>2000-01-01T22:38:13.000Z</time>
      </trkpt>
      <trkpt lat="44.48168" lon="2.97924">
        <ele>664.6</ele>
        <time>2000-01-01T22:38:23.000Z</time>
      </trkpt>
      <trkpt lat="44.48134" lon="2.97893">
        <ele>664</ele>
        <time>2000-01-01T22:38:33.000Z</time>
      </trkpt>
      <trkpt lat="44.48125" lon="2.97879">
        <ele>661.3</ele>
        <time>2000-01-01T22:38:43.000Z</time>
      </trkpt>
      <trkpt lat="44.48102" lon="2.97854">
        <ele>662</ele>
        <time>2000-01-01T22:38:53.000Z</time>
      </trkpt>
      <trkpt lat="44.48091" lon="2.97838">
        <ele>660.5</ele>
        <time>2000-01-01T22:39:03.000Z</time>
      </trkpt>
      <trkpt lat="44.48055" lon="2.97803">
        <ele>659</ele>
        <time>2000-01-01T22:39:13.000Z</time>
      </trkpt>
      <trkpt lat="44.48045" lon="2.97794">
        <ele>657.8</ele>
        <time>2000-01-01T22:39:23.000Z</time>
      </trkpt>
      <trkpt lat="44.48029" lon="2.97785">
        <ele>657</ele>
        <time>2000-01-01T22:39:33.000Z</time>
      </trkpt>
      <trkpt lat="44.47994" lon="2.97773">
        <ele>657</ele>
        <time>2000-01-01T22:39:43.000Z</time>
      </trkpt>
      <trkpt lat="44.47978" lon="2.9776">
        <ele>656.9</ele>
        <time>2000-01-01T22:39:53.000Z</time>
      </trkpt>
      <trkpt lat="44.4796" lon="2.97748">
        <ele>657</ele>
        <time>2000-01-01T22:40:03.000Z</time>
      </trkpt>
      <trkpt lat="44.47938" lon="2.97729">
        <ele>655</ele>
        <time>2000-01-01T22:40:13.000Z</time>
      </trkpt>
      <trkpt lat="44.47914" lon="2.97707">
        <ele>653</ele>
        <time>2000-01-01T22:40:23.000Z</time>
      </trkpt>
      <trkpt lat="44.47898" lon="2.97694">
        <ele>652.3</ele>
        <time>2000-01-01T22:40:33.000Z</time>
      </trkpt>
      <trkpt lat="44.47844" lon="2.97665">
        <ele>652</ele>
        <time>2000-01-01T22:40:43.000Z</time>
      </trkpt>
      <trkpt lat="44.47816" lon="2.97646">
        <ele>650</ele>
        <time>2000-01-01T22:40:53.000Z</time>
      </trkpt>
      <trkpt lat="44.47806" lon="2.97643">
        <ele>649.8</ele>
        <time>2000-01-01T22:41:03.000Z</time>
      </trkpt>
      <trkpt lat="44.47793" lon="2.97637">
        <ele>647</ele>
        <time>2000-01-01T22:41:13.000Z</time>
      </trkpt>
      <trkpt lat="44.47772" lon="2.97631">
        <ele>646</ele>
        <time>2000-01-01T22:41:23.000Z</time>
      </trkpt>
      <trkpt lat="44.47746" lon="2.97628">
        <ele>642</ele>
        <time>2000-01-01T22:41:33.000Z</time>
      </trkpt>
      <trkpt lat="44.47723" lon="2.9763">
        <ele>637</ele>
        <time>2000-01-01T22:41:43.000Z</time>
      </trkpt>
      <trkpt lat="44.47714" lon="2.97629">
        <ele>636.7</ele>
        <time>2000-01-01T22:41:53.000Z</time>
      </trkpt>
      <trkpt lat="44.47707" lon="2.9762">
        <ele>634.1</ele>
        <time>2000-01-01T22:42:03.000Z</time>
      </trkpt>
      <trkpt lat="44.47711" lon="2.97609">
        <ele>631</ele>
        <time>2000-01-01T22:42:13.000Z</time>
      </trkpt>
      <trkpt lat="44.47721" lon="2.97594">
        <ele>633.9</ele>
        <time>2000-01-01T22:42:23.000Z</time>
      </trkpt>
      <trkpt lat="44.47736" lon="2.97577">
        <ele>629</ele>
        <time>2000-01-01T22:42:33.000Z</time>
      </trkpt>
      <trkpt lat="44.4776" lon="2.97563">
        <ele>629</ele>
        <time>2000-01-01T22:42:43.000Z</time>
      </trkpt>
      <trkpt lat="44.4778" lon="2.97555">
        <ele>628</ele>
        <time>2000-01-01T22:42:53.000Z</time>
      </trkpt>
      <trkpt lat="44.47795" lon="2.97548">
        <ele>625.8</ele>
        <time>2000-01-01T22:43:03.000Z</time>
      </trkpt>
      <trkpt lat="44.47836" lon="2.9754">
        <ele>615</ele>
        <time>2000-01-01T22:43:13.000Z</time>
      </trkpt>
      <trkpt lat="44.47845" lon="2.97539">
        <ele>615.9</ele>
        <time>2000-01-01T22:43:23.000Z</time>
      </trkpt>
      <trkpt lat="44.47856" lon="2.9754">
        <ele>611</ele>
        <time>2000-01-01T22:43:33.000Z</time>
      </trkpt>
      <trkpt lat="44.47873" lon="2.97539">
        <ele>610.5</ele>
        <time>2000-01-01T22:43:43.000Z</time>
      </trkpt>
      <trkpt lat="44.47877" lon="2.9754">
        <ele>608</ele>
        <time>2000-01-01T22:43:53.000Z</time>
      </trkpt>
      <trkpt lat="44.47882" lon="2.9754">
        <ele>608.9</ele>
        <time>2000-01-01T22:44:03.000Z</time>
      </trkpt>
      <trkpt lat="44.47896" lon="2.97536">
        <ele>603</ele>
        <time>2000-01-01T22:44:13.000Z</time>
      </trkpt>
      <trkpt lat="44.47905" lon="2.97535">
        <ele>601.7</ele>
        <time>2000-01-01T22:44:23.000Z</time>
      </trkpt>
      <trkpt lat="44.4792" lon="2.9754">
        <ele>598</ele>
        <time>2000-01-01T22:44:33.000Z</time>
      </trkpt>
      <trkpt lat="44.47925" lon="2.97539">
        <ele>599.2</ele>
        <time>2000-01-01T22:44:43.000Z</time>
      </trkpt>
      <trkpt lat="44.47937" lon="2.97535">
        <ele>595.9</ele>
        <time>2000-01-01T22:44:53.000Z</time>
      </trkpt>
      <trkpt lat="44.47941" lon="2.97538">
        <ele>592</ele>
        <time>2000-01-01T22:45:03.000Z</time>
      </trkpt>
      <trkpt lat="44.47952" lon="2.97541">
        <ele>595.5</ele>
        <time>2000-01-01T22:45:13.000Z</time>
      </trkpt>
      <trkpt lat="44.47956" lon="2.97543">
        <ele>595.3</ele>
        <time>2000-01-01T22:45:23.000Z</time>
      </trkpt>
      <trkpt lat="44.47972" lon="2.97543">
        <ele>590</ele>
        <time>2000-01-01T22:45:33.000Z</time>
      </trkpt>
      <trkpt lat="44.4798" lon="2.97545">
        <ele>590.2</ele>
        <time>2000-01-01T22:45:43.000Z</time>
      </trkpt>
      <trkpt lat="44.47994" lon="2.97546">
        <ele>585</ele>
        <time>2000-01-01T22:45:53.000Z</time>
      </trkpt>
      <trkpt lat="44.48002" lon="2.9755">
        <ele>586.5</ele>
        <time>2000-01-01T22:46:03.000Z</time>
      </trkpt>
      <trkpt lat="44.48037" lon="2.97553">
        <ele>579</ele>
        <time>2000-01-01T22:46:13.000Z</time>
      </trkpt>
      <trkpt lat="44.48044" lon="2.97552">
        <ele>576.8</ele>
        <time>2000-01-01T22:46:23.000Z</time>
      </trkpt>
      <trkpt lat="44.48049" lon="2.97554">
        <ele>576.1</ele>
        <time>2000-01-01T22:46:33.000Z</time>
      </trkpt>
      <trkpt lat="44.48064" lon="2.97554">
        <ele>572</ele>
        <time>2000-01-01T22:46:43.000Z</time>
      </trkpt>
      <trkpt lat="44.48065" lon="2.97551">
        <ele>572</ele>
        <time>2000-01-01T22:46:53.000Z</time>
      </trkpt>
      <trkpt lat="44.48064" lon="2.9755">
        <ele>571.8</ele>
        <time>2000-01-01T22:47:03.000Z</time>
      </trkpt>
      <trkpt lat="44.48061" lon="2.97549">
        <ele>572</ele>
        <time>2000-01-01T22:47:13.000Z</time>
      </trkpt>
      <trkpt lat="44.48056" lon="2.97541">
        <ele>570.2</ele>
        <time>2000-01-01T22:47:23.000Z</time>
      </trkpt>
      <trkpt lat="44.48053" lon="2.97535">
        <ele>567</ele>
        <time>2000-01-01T22:47:33.000Z</time>
      </trkpt>
      <trkpt lat="44.4805" lon="2.97525">
        <ele>566.5</ele>
        <time>2000-01-01T22:47:43.000Z</time>
      </trkpt>
      <trkpt lat="44.48043" lon="2.97511">
        <ele>563</ele>
        <time>2000-01-01T22:47:53.000Z</time>
      </trkpt>
      <trkpt lat="44.48043" lon="2.97507">
        <ele>562.4</ele>
        <time>2000-01-01T22:48:03.000Z</time>
      </trkpt>
      <trkpt lat="44.48046" lon="2.97502">
        <ele>560.1</ele>
        <time>2000-01-01T22:48:13.000Z</time>
      </trkpt>
      <trkpt lat="44.48056" lon="2.97498">
        <ele>556.2</ele>
        <time>2000-01-01T22:48:23.000Z</time>
      </trkpt>
      <trkpt lat="44.4806" lon="2.97498">
        <ele>558</ele>
        <time>2000-01-01T22:48:33.000Z</time>
      </trkpt>
      <trkpt lat="44.48064" lon="2.97499">
        <ele>553.3</ele>
        <time>2000-01-01T22:48:43.000Z</time>
      </trkpt>
      <trkpt lat="44.4807" lon="2.97504">
        <ele>552.9</ele>
        <time>2000-01-01T22:48:53.000Z</time>
      </trkpt>
      <trkpt lat="44.48074" lon="2.97505">
        <ele>551.8</ele>
        <time>2000-01-01T22:49:03.000Z</time>
      </trkpt>
      <trkpt lat="44.48078" lon="2.97505">
        <ele>550.3</ele>
        <time>2000-01-01T22:49:13.000Z</time>
      </trkpt>
      <trkpt lat="44.48101" lon="2.97501">
        <ele>544</ele>
        <time>2000-01-01T22:49:23.000Z</time>
      </trkpt>
      <trkpt lat="44.48104" lon="2.97497">
        <ele>543</ele>
        <time>2000-01-01T22:49:33.000Z</time>
      </trkpt>
      <trkpt lat="44.48104" lon="2.97496">
        <ele>542.5</ele>
        <time>2000-01-01T22:49:43.000Z</time>
      </trkpt>
      <trkpt lat="44.48098" lon="2.97492">
        <ele>541.3</ele>
        <time>2000-01-01T22:49:53.000Z</time>
      </trkpt>
      <trkpt lat="44.48095" lon="2.97489">
        <ele>540.4</ele>
        <time>2000-01-01T22:50:03.000Z</time>
      </trkpt>
      <trkpt lat="44.4809" lon="2.97476">
        <ele>536</ele>
        <time>2000-01-01T22:50:13.000Z</time>
      </trkpt>
      <trkpt lat="44.48075" lon="2.97457">
        <ele>532</ele>
        <time>2000-01-01T22:50:23.000Z</time>
      </trkpt>
      <trkpt lat="44.48062" lon="2.97437">
        <ele>527</ele>
        <time>2000-01-01T22:50:33.000Z</time>
      </trkpt>
      <trkpt lat="44.48056" lon="2.9743">
        <ele>529.6</ele>
        <time>2000-01-01T22:50:43.000Z</time>
      </trkpt>
      <trkpt lat="44.48039" lon="2.97414">
        <ele>526</ele>
        <time>2000-01-01T22:50:53.000Z</time>
      </trkpt>
      <trkpt lat="44.48039" lon="2.97411">
        <ele>526.3</ele>
        <time>2000-01-01T22:51:03.000Z</time>
      </trkpt>
      <trkpt lat="44.4804" lon="2.97407">
        <ele>524.3</ele>
        <time>2000-01-01T22:51:13.000Z</time>
      </trkpt>
      <trkpt lat="44.48044" lon="2.97404">
        <ele>521.9</ele>
        <time>2000-01-01T22:51:23.000Z</time>
      </trkpt>
      <trkpt lat="44.48053" lon="2.97404">
        <ele>519.3</ele>
        <time>2000-01-01T22:51:33.000Z</time>
      </trkpt>
      <trkpt lat="44.48071" lon="2.97412">
        <ele>513</ele>
        <time>2000-01-01T22:51:43.000Z</time>
      </trkpt>
      <trkpt lat="44.48077" lon="2.97412">
        <ele>512.1</ele>
        <time>2000-01-01T22:51:53.000Z</time>
      </trkpt>
      <trkpt lat="44.48082" lon="2.97414">
        <ele>510.6</ele>
        <time>2000-01-01T22:52:03.000Z</time>
      </trkpt>
      <trkpt lat="44.48104" lon="2.97417">
        <ele>503</ele>
        <time>2000-01-01T22:52:13.000Z</time>
      </trkpt>
      <trkpt lat="44.48113" lon="2.97415">
        <ele>504.3</ele>
        <time>2000-01-01T22:52:23.000Z</time>
      </trkpt>
      <trkpt lat="44.48122" lon="2.97416">
        <ele>503.6</ele>
        <time>2000-01-01T22:52:33.000Z</time>
      </trkpt>
      <trkpt lat="44.48124" lon="2.97415">
        <ele>501</ele>
        <time>2000-01-01T22:52:43.000Z</time>
      </trkpt>
      <trkpt lat="44.48128" lon="2.97403">
        <ele>499.2</ele>
        <time>2000-01-01T22:52:53.000Z</time>
      </trkpt>
      <trkpt lat="44.48122" lon="2.97397">
        <ele>498.2</ele>
        <time>2000-01-01T22:53:03.000Z</time>
      </trkpt>
      <trkpt lat="44.48116" lon="2.97387">
        <ele>494</ele>
        <time>2000-01-01T22:53:13.000Z</time>
      </trkpt>
      <trkpt lat="44.48104" lon="2.97374">
        <ele>494.1</ele>
        <time>2000-01-01T22:53:23.000Z</time>
      </trkpt>
      <trkpt lat="44.48088" lon="2.97367">
        <ele>489</ele>
        <time>2000-01-01T22:53:33.000Z</time>
      </trkpt>
      <trkpt lat="44.48077" lon="2.97353">
        <ele>491.5</ele>
        <time>2000-01-01T22:53:43.000Z</time>
      </trkpt>
      <trkpt lat="44.48066" lon="2.97348">
        <ele>489</ele>
        <time>2000-01-01T22:53:53.000Z</time>
      </trkpt>
      <trkpt lat="44.48063" lon="2.97339">
        <ele>491</ele>
        <time>2000-01-01T22:54:03.000Z</time>
      </trkpt>
      <trkpt lat="44.48064" lon="2.97334">
        <ele>489.6</ele>
        <time>2000-01-01T22:54:13.000Z</time>
      </trkpt>
      <trkpt lat="44.48063" lon="2.97332">
        <ele>489.5</ele>
        <time>2000-01-01T22:54:23.000Z</time>
      </trkpt>
      <trkpt lat="44.4806" lon="2.9733">
        <ele>489.7</ele>
        <time>2000-01-01T22:54:33.000Z</time>
      </trkpt>
      <trkpt lat="44.48061" lon="2.97327">
        <ele>489.7</ele>
        <time>2000-01-01T22:54:43.000Z</time>
      </trkpt>
      <trkpt lat="44.48061" lon="2.97323">
        <ele>486</ele>
        <time>2000-01-01T22:54:53.000Z</time>
      </trkpt>
      <trkpt lat="44.48059" lon="2.9732">
        <ele>489.6</ele>
        <time>2000-01-01T22:55:03.000Z</time>
      </trkpt>
      <trkpt lat="44.48037" lon="2.97304">
        <ele>485</ele>
        <time>2000-01-01T22:55:13.000Z</time>
      </trkpt>
      <trkpt lat="44.48031" lon="2.97302">
        <ele>486.3</ele>
        <time>2000-01-01T22:55:23.000Z</time>
      </trkpt>
      <trkpt lat="44.48016" lon="2.97292">
        <ele>483</ele>
        <time>2000-01-01T22:55:33.000Z</time>
      </trkpt>
      <trkpt lat="44.48005" lon="2.97292">
        <ele>486</ele>
        <time>2000-01-01T22:55:43.000Z</time>
      </trkpt>
      <trkpt lat="44.47996" lon="2.97286">
        <ele>481</ele>
        <time>2000-01-01T22:55:53.000Z</time>
      </trkpt>
      <trkpt lat="44.47966" lon="2.97249">
        <ele>479</ele>
        <time>2000-01-01T22:56:03.000Z</time>
      </trkpt>
      <trkpt lat="44.47956" lon="2.97243">
        <ele>483.9</ele>
        <time>2000-01-01T22:56:13.000Z</time>
      </trkpt>
      <trkpt lat="44.47951" lon="2.97235">
        <ele>483.3</ele>
        <time>2000-01-01T22:56:23.000Z</time>
      </trkpt>
      <trkpt lat="44.47947" lon="2.9723">
        <ele>479</ele>
        <time>2000-01-01T22:56:33.000Z</time>
      </trkpt>
      <trkpt lat="44.47941" lon="2.97224">
        <ele>480.2</ele>
        <time>2000-01-01T22:56:43.000Z</time>
      </trkpt>
      <trkpt lat="44.47925" lon="2.97214">
        <ele>477</ele>
        <time>2000-01-01T22:56:53.000Z</time>
      </trkpt>
      <trkpt lat="44.47915" lon="2.9721">
        <ele>480.6</ele>
        <time>2000-01-01T22:57:03.000Z</time>
      </trkpt>
      <trkpt lat="44.47903" lon="2.97202">
        <ele>477</ele>
        <time>2000-01-01T22:57:13.000Z</time>
      </trkpt>
      <trkpt lat="44.4789" lon="2.97189">
        <ele>477.9</ele>
        <time>2000-01-01T22:57:23.000Z</time>
      </trkpt>
      <trkpt lat="44.47872" lon="2.97177">
        <ele>475</ele>
        <time>2000-01-01T22:57:33.000Z</time>
      </trkpt>
      <trkpt lat="44.47854" lon="2.97171">
        <ele>477.6</ele>
        <time>2000-01-01T22:57:43.000Z</time>
      </trkpt>
      <trkpt lat="44.47829" lon="2.9716">
        <ele>475</ele>
        <time>2000-01-01T22:57:53.000Z</time>
      </trkpt>
      <trkpt lat="44.47814" lon="2.97157">
        <ele>475</ele>
        <time>2000-01-01T22:58:03.000Z</time>
      </trkpt>
      <trkpt lat="44.47791" lon="2.9716">
        <ele>475</ele>
        <time>2000-01-01T22:58:13.000Z</time>
      </trkpt>
      <trkpt lat="44.47746" lon="2.9715">
        <ele>475</ele>
        <time>2000-01-01T22:58:23.000Z</time>
      </trkpt>
      <trkpt lat="44.47739" lon="2.97151">
        <ele>472.7</ele>
        <time>2000-01-01T22:58:33.000Z</time>
      </trkpt>
      <trkpt lat="44.47729" lon="2.97149">
        <ele>472.8</ele>
        <time>2000-01-01T22:58:43.000Z</time>
      </trkpt>
      <trkpt lat="44.47727" lon="2.97147">
        <ele>475</ele>
        <time>2000-01-01T22:58:53.000Z</time>
      </trkpt>
      <trkpt lat="44.47712" lon="2.97145">
        <ele>472.9</ele>
        <time>2000-01-01T22:59:03.000Z</time>
      </trkpt>
      <trkpt lat="44.47687" lon="2.97138">
        <ele>476</ele>
        <time>2000-01-01T22:59:13.000Z</time>
      </trkpt>
      <trkpt lat="44.47668" lon="2.97129">
        <ele>478</ele>
        <time>2000-01-01T22:59:23.000Z</time>
      </trkpt>
      <trkpt lat="44.47658" lon="2.97127">
        <ele>477.6</ele>
        <time>2000-01-01T22:59:33.000Z</time>
      </trkpt>
      <trkpt lat="44.47646" lon="2.97127">
        <ele>478</ele>
        <time>2000-01-01T22:59:43.000Z</time>
      </trkpt>
      <trkpt lat="44.47631" lon="2.97129">
        <ele>474.6</ele>
        <time>2000-01-01T22:59:53.000Z</time>
      </trkpt>
      <trkpt lat="44.47621" lon="2.97129">
        <ele>476</ele>
        <time>2000-01-01T23:00:03.000Z</time>
      </trkpt>
      <trkpt lat="44.47612" lon="2.97127">
        <ele>474.7</ele>
        <time>2000-01-01T23:00:13.000Z</time>
      </trkpt>
      <trkpt lat="44.47589" lon="2.97129">
        <ele>474</ele>
        <time>2000-01-01T23:00:23.000Z</time>
      </trkpt>
      <trkpt lat="44.47566" lon="2.97121">
        <ele>473</ele>
        <time>2000-01-01T23:00:33.000Z</time>
      </trkpt>
      <trkpt lat="44.4754" lon="2.97119">
        <ele>472</ele>
        <time>2000-01-01T23:00:43.000Z</time>
      </trkpt>
      <trkpt lat="44.47531" lon="2.97121">
        <ele>468.2</ele>
        <time>2000-01-01T23:00:53.000Z</time>
      </trkpt>
      <trkpt lat="44.47518" lon="2.97127">
        <ele>466</ele>
        <time>2000-01-01T23:01:03.000Z</time>
      </trkpt>
      <trkpt lat="44.47518" lon="2.97131">
        <ele>462.9</ele>
        <time>2000-01-01T23:01:13.000Z</time>
      </trkpt>
      <trkpt lat="44.47521" lon="2.9714">
        <ele>460.5</ele>
        <time>2000-01-01T23:01:23.000Z</time>
      </trkpt>
      <trkpt lat="44.47519" lon="2.97147">
        <ele>462</ele>
        <time>2000-01-01T23:01:33.000Z</time>
      </trkpt>
      <trkpt lat="44.47514" lon="2.97151">
        <ele>462</ele>
        <time>2000-01-01T23:01:43.000Z</time>
      </trkpt>
      <trkpt lat="44.47502" lon="2.9715">
        <ele>462.1</ele>
        <time>2000-01-01T23:01:53.000Z</time>
      </trkpt>
      <trkpt lat="44.47491" lon="2.97142">
        <ele>462</ele>
        <time>2000-01-01T23:02:03.000Z</time>
      </trkpt>
      <trkpt lat="44.47485" lon="2.97141">
        <ele>460.9</ele>
        <time>2000-01-01T23:02:13.000Z</time>
      </trkpt>
      <trkpt lat="44.47478" lon="2.97142">
        <ele>462.2</ele>
        <time>2000-01-01T23:02:23.000Z</time>
      </trkpt>
      <trkpt lat="44.47469" lon="2.97141">
        <ele>462</ele>
        <time>2000-01-01T23:02:33.000Z</time>
      </trkpt>
      <trkpt lat="44.47452" lon="2.97132">
        <ele>463.7</ele>
        <time>2000-01-01T23:02:43.000Z</time>
      </trkpt>
      <trkpt lat="44.4744" lon="2.97129">
        <ele>460</ele>
        <time>2000-01-01T23:02:53.000Z</time>
      </trkpt>
      <trkpt lat="44.47416" lon="2.9713">
        <ele>460</ele>
        <time>2000-01-01T23:03:03.000Z</time>
      </trkpt>
      <trkpt lat="44.47404" lon="2.97126">
        <ele>463.7</ele>
        <time>2000-01-01T23:03:13.000Z</time>
      </trkpt>
      <trkpt lat="44.47393" lon="2.97121">
        <ele>460</ele>
        <time>2000-01-01T23:03:23.000Z</time>
      </trkpt>
      <trkpt lat="44.47364" lon="2.97113">
        <ele>460</ele>
        <time>2000-01-01T23:03:33.000Z</time>
      </trkpt>
      <trkpt lat="44.47354" lon="2.97109">
        <ele>461.1</ele>
        <time>2000-01-01T23:03:43.000Z</time>
      </trkpt>
      <trkpt lat="44.47288" lon="2.97094">
        <ele>457</ele>
        <time>2000-01-01T23:03:53.000Z</time>
      </trkpt>
      <trkpt lat="44.47276" lon="2.97088">
        <ele>455.6</ele>
        <time>2000-01-01T23:04:03.000Z</time>
      </trkpt>
      <trkpt lat="44.47257" lon="2.97085">
        <ele>455</ele>
        <time>2000-01-01T23:04:13.000Z</time>
      </trkpt>
      <trkpt lat="44.47245" lon="2.97084">
        <ele>457.1</ele>
        <time>2000-01-01T23:04:23.000Z</time>
      </trkpt>
      <trkpt lat="44.47232" lon="2.97081">
        <ele>455</ele>
        <time>2000-01-01T23:04:33.000Z</time>
      </trkpt>
      <trkpt lat="44.47224" lon="2.97081">
        <ele>455.5</ele>
        <time>2000-01-01T23:04:43.000Z</time>
      </trkpt>
      <trkpt lat="44.47204" lon="2.97076">
        <ele>452</ele>
        <time>2000-01-01T23:04:53.000Z</time>
      </trkpt>
      <trkpt lat="44.47188" lon="2.97071">
        <ele>453.1</ele>
        <time>2000-01-01T23:05:03.000Z</time>
      </trkpt>
      <trkpt lat="44.47176" lon="2.97063">
        <ele>450</ele>
        <time>2000-01-01T23:05:13.000Z</time>
      </trkpt>
      <trkpt lat="44.47168" lon="2.97061">
        <ele>450.3</ele>
        <time>2000-01-01T23:05:23.000Z</time>
      </trkpt>
      <trkpt lat="44.47145" lon="2.97059">
        <ele>444</ele>
        <time>2000-01-01T23:05:33.000Z</time>
      </trkpt>
      <trkpt lat="44.47129" lon="2.9706">
        <ele>447.6</ele>
        <time>2000-01-01T23:05:43.000Z</time>
      </trkpt>
      <trkpt lat="44.47117" lon="2.97062">
        <ele>444</ele>
        <time>2000-01-01T23:05:53.000Z</time>
      </trkpt>
      <trkpt lat="44.47108" lon="2.97062">
        <ele>445.9</ele>
        <time>2000-01-01T23:06:03.000Z</time>
      </trkpt>
      <trkpt lat="44.47101" lon="2.97061">
        <ele>445.1</ele>
        <time>2000-01-01T23:06:13.000Z</time>
      </trkpt>
      <trkpt lat="44.47084" lon="2.97055">
        <ele>441</ele>
        <time>2000-01-01T23:06:23.000Z</time>
      </trkpt>
      <trkpt lat="44.47079" lon="2.97052">
        <ele>442.7</ele>
        <time>2000-01-01T23:06:33.000Z</time>
      </trkpt>
      <trkpt lat="44.47075" lon="2.97048">
        <ele>444</ele>
        <time>2000-01-01T23:06:43.000Z</time>
      </trkpt>
      <trkpt lat="44.4707" lon="2.97045">
        <ele>444.6</ele>
        <time>2000-01-01T23:06:53.000Z</time>
      </trkpt>
      <trkpt lat="44.47067" lon="2.97044">
        <ele>444.6</ele>
        <time>2000-01-01T23:07:03.000Z</time>
      </trkpt>
      <trkpt lat="44.47053" lon="2.97043">
        <ele>442</ele>
        <time>2000-01-01T23:07:13.000Z</time>
      </trkpt>
      <trkpt lat="44.47049" lon="2.9704">
        <ele>444.3</ele>
        <time>2000-01-01T23:07:23.000Z</time>
      </trkpt>
      <trkpt lat="44.4703" lon="2.97043">
        <ele>444</ele>
        <time>2000-01-01T23:07:33.000Z</time>
      </trkpt>
      <trkpt lat="44.4701" lon="2.97039">
        <ele>444</ele>
        <time>2000-01-01T23:07:43.000Z</time>
      </trkpt>
      <trkpt lat="44.47004" lon="2.9704">
        <ele>445.6</ele>
        <time>2000-01-01T23:07:53.000Z</time>
      </trkpt>
      <trkpt lat="44.46994" lon="2.97037">
        <ele>446.1</ele>
        <time>2000-01-01T23:08:03.000Z</time>
      </trkpt>
      <trkpt lat="44.46987" lon="2.97036">
        <ele>444</ele>
        <time>2000-01-01T23:08:13.000Z</time>
      </trkpt>
      <trkpt lat="44.46979" lon="2.97032">
        <ele>444.4</ele>
        <time>2000-01-01T23:08:23.000Z</time>
      </trkpt>
      <trkpt lat="44.46965" lon="2.97028">
        <ele>439</ele>
        <time>2000-01-01T23:08:33.000Z</time>
      </trkpt>
      <trkpt lat="44.46959" lon="2.97023">
        <ele>442.2</ele>
        <time>2000-01-01T23:08:43.000Z</time>
      </trkpt>
      <trkpt lat="44.46947" lon="2.97017">
        <ele>437</ele>
        <time>2000-01-01T23:08:53.000Z</time>
      </trkpt>
      <trkpt lat="44.46933" lon="2.97022">
        <ele>438.6</ele>
        <time>2000-01-01T23:09:03.000Z</time>
      </trkpt>
      <trkpt lat="44.46913" lon="2.9704">
        <ele>433</ele>
        <time>2000-01-01T23:09:13.000Z</time>
      </trkpt>
      <trkpt lat="44.46897" lon="2.97053">
        <ele>434.6</ele>
        <time>2000-01-01T23:09:23.000Z</time>
      </trkpt>
      <trkpt lat="44.46883" lon="2.97062">
        <ele>433</ele>
        <time>2000-01-01T23:09:33.000Z</time>
      </trkpt>
      <trkpt lat="44.46868" lon="2.9706">
        <ele>434.8</ele>
        <time>2000-01-01T23:09:43.000Z</time>
      </trkpt>
      <trkpt lat="44.46846" lon="2.97046">
        <ele>430</ele>
        <time>2000-01-01T23:09:53.000Z</time>
      </trkpt>
      <trkpt lat="44.46829" lon="2.97052">
        <ele>433.1</ele>
        <time>2000-01-01T23:10:03.000Z</time>
      </trkpt>
      <trkpt lat="44.46814" lon="2.97073">
        <ele>428</ele>
        <time>2000-01-01T23:10:13.000Z</time>
      </trkpt>
      <trkpt lat="44.468" lon="2.97079">
        <ele>429.8</ele>
        <time>2000-01-01T23:10:23.000Z</time>
      </trkpt>
      <trkpt lat="44.46788" lon="2.97082">
        <ele>426</ele>
        <time>2000-01-01T23:10:33.000Z</time>
      </trkpt>
      <trkpt lat="44.46767" lon="2.97083">
        <ele>426</ele>
        <time>2000-01-01T23:10:43.000Z</time>
      </trkpt>
      <trkpt lat="44.46763" lon="2.97082">
        <ele>426.4</ele>
        <time>2000-01-01T23:10:53.000Z</time>
      </trkpt>
      <trkpt lat="44.46759" lon="2.97084">
        <ele>426.3</ele>
        <time>2000-01-01T23:11:03.000Z</time>
      </trkpt>
      <trkpt lat="44.46751" lon="2.97085">
        <ele>426.6</ele>
        <time>2000-01-01T23:11:13.000Z</time>
      </trkpt>
      <trkpt lat="44.46734" lon="2.97071">
        <ele>424</ele>
        <time>2000-01-01T23:11:23.000Z</time>
      </trkpt>
      <trkpt lat="44.46729" lon="2.97068">
        <ele>427.1</ele>
        <time>2000-01-01T23:11:33.000Z</time>
      </trkpt>
      <trkpt lat="44.4672" lon="2.97061">
        <ele>425.7</ele>
        <time>2000-01-01T23:11:43.000Z</time>
      </trkpt>
      <trkpt lat="44.46715" lon="2.97055">
        <ele>424</ele>
        <time>2000-01-01T23:11:53.000Z</time>
      </trkpt>
      <trkpt lat="44.46711" lon="2.97052">
        <ele>425.7</ele>
        <time>2000-01-01T23:12:03.000Z</time>
      </trkpt>
      <trkpt lat="44.46706" lon="2.97042">
        <ele>426.3</ele>
        <time>2000-01-01T23:12:13.000Z</time>
      </trkpt>
      <trkpt lat="44.46697" lon="2.97038">
        <ele>424</ele>
        <time>2000-01-01T23:12:23.000Z</time>
      </trkpt>
      <trkpt lat="44.46685" lon="2.97039">
        <ele>425.6</ele>
        <time>2000-01-01T23:12:33.000Z</time>
      </trkpt>
      <trkpt lat="44.46662" lon="2.97075">
        <ele>423</ele>
        <time>2000-01-01T23:12:43.000Z</time>
      </trkpt>
      <trkpt lat="44.46659" lon="2.97077">
        <ele>423.7</ele>
        <time>2000-01-01T23:12:53.000Z</time>
      </trkpt>
      <trkpt lat="44.46655" lon="2.97089">
        <ele>423.4</ele>
        <time>2000-01-01T23:13:03.000Z</time>
      </trkpt>
      <trkpt lat="44.46648" lon="2.97093">
        <ele>422</ele>
        <time>2000-01-01T23:13:13.000Z</time>
      </trkpt>
      <trkpt lat="44.46641" lon="2.97103">
        <ele>421.8</ele>
        <time>2000-01-01T23:13:23.000Z</time>
      </trkpt>
      <trkpt lat="44.46635" lon="2.9711">
        <ele>420.8</ele>
        <time>2000-01-01T23:13:33.000Z</time>
      </trkpt>
      <trkpt lat="44.46622" lon="2.97107">
        <ele>420</ele>
        <time>2000-01-01T23:13:43.000Z</time>
      </trkpt>
      <trkpt lat="44.46599" lon="2.97081">
        <ele>419</ele>
        <time>2000-01-01T23:13:53.000Z</time>
      </trkpt>
      <trkpt lat="44.46591" lon="2.9707">
        <ele>420</ele>
        <time>2000-01-01T23:14:03.000Z</time>
      </trkpt>
      <trkpt lat="44.46564" lon="2.9704">
        <ele>419</ele>
        <time>2000-01-01T23:14:13.000Z</time>
      </trkpt>
      <trkpt lat="44.46554" lon="2.97026">
        <ele>420</ele>
        <time>2000-01-01T23:14:23.000Z</time>
      </trkpt>
      <trkpt lat="44.46543" lon="2.97016">
        <ele>419</ele>
        <time>2000-01-01T23:14:33.000Z</time>
      </trkpt>
      <trkpt lat="44.46535" lon="2.97002">
        <ele>419.7</ele>
        <time>2000-01-01T23:14:43.000Z</time>
      </trkpt>
      <trkpt lat="44.4652" lon="2.96984">
        <ele>419</ele>
        <time>2000-01-01T23:14:53.000Z</time>
      </trkpt>
      <trkpt lat="44.46498" lon="2.96954">
        <ele>419</ele>
        <time>2000-01-01T23:15:03.000Z</time>
      </trkpt>
      <trkpt lat="44.46491" lon="2.96943">
        <ele>420.1</ele>
        <time>2000-01-01T23:15:13.000Z</time>
      </trkpt>
      <trkpt lat="44.46483" lon="2.96936">
        <ele>419</ele>
        <time>2000-01-01T23:15:23.000Z</time>
      </trkpt>
      <trkpt lat="44.46468" lon="2.96915">
        <ele>419</ele>
        <time>2000-01-01T23:15:33.000Z</time>
      </trkpt>
      <trkpt lat="44.46458" lon="2.96906">
        <ele>420.6</ele>
        <time>2000-01-01T23:15:43.000Z</time>
      </trkpt>
      <trkpt lat="44.46447" lon="2.96898">
        <ele>419</ele>
        <time>2000-01-01T23:15:53.000Z</time>
      </trkpt>
      <trkpt lat="44.46432" lon="2.9689">
        <ele>420.1</ele>
        <time>2000-01-01T23:16:03.000Z</time>
      </trkpt>
      <trkpt lat="44.46419" lon="2.9688">
        <ele>419</ele>
        <time>2000-01-01T23:16:13.000Z</time>
      </trkpt>
      <trkpt lat="44.46397" lon="2.9686">
        <ele>418</ele>
        <time>2000-01-01T23:16:23.000Z</time>
      </trkpt>
      <trkpt lat="44.46369" lon="2.96835">
        <ele>419</ele>
        <time>2000-01-01T23:16:33.000Z</time>
      </trkpt>
      <trkpt lat="44.46354" lon="2.96819">
        <ele>419.5</ele>
        <time>2000-01-01T23:16:43.000Z</time>
      </trkpt>
      <trkpt lat="44.46341" lon="2.96801">
        <ele>419</ele>
        <time>2000-01-01T23:16:53.000Z</time>
      </trkpt>
      <trkpt lat="44.46327" lon="2.96791">
        <ele>419.5</ele>
        <time>2000-01-01T23:17:03.000Z</time>
      </trkpt>
      <trkpt lat="44.46314" lon="2.96779">
        <ele>419</ele>
        <time>2000-01-01T23:17:13.000Z</time>
      </trkpt>
      <trkpt lat="44.46301" lon="2.96765">
        <ele>419.1</ele>
        <time>2000-01-01T23:17:23.000Z</time>
      </trkpt>
      <trkpt lat="44.46285" lon="2.96751">
        <ele>419</ele>
        <time>2000-01-01T23:17:33.000Z</time>
      </trkpt>
      <trkpt lat="44.46272" lon="2.96731">
        <ele>419</ele>
        <time>2000-01-01T23:17:43.000Z</time>
      </trkpt>
      <trkpt lat="44.46262" lon="2.96723">
        <ele>419.2</ele>
        <time>2000-01-01T23:17:53.000Z</time>
      </trkpt>
      <trkpt lat="44.46251" lon="2.96711">
        <ele>419</ele>
        <time>2000-01-01T23:18:03.000Z</time>
      </trkpt>
      <trkpt lat="44.46232" lon="2.96694">
        <ele>419</ele>
        <time>2000-01-01T23:18:13.000Z</time>
      </trkpt>
      <trkpt lat="44.4622" lon="2.96682">
        <ele>419.2</ele>
        <time>2000-01-01T23:18:23.000Z</time>
      </trkpt>
      <trkpt lat="44.46208" lon="2.96668">
        <ele>418</ele>
        <time>2000-01-01T23:18:33.000Z</time>
      </trkpt>
      <trkpt lat="44.46194" lon="2.96656">
        <ele>418.5</ele>
        <time>2000-01-01T23:18:43.000Z</time>
      </trkpt>
      <trkpt lat="44.46182" lon="2.96633">
        <ele>418</ele>
        <time>2000-01-01T23:18:53.000Z</time>
      </trkpt>
      <trkpt lat="44.46174" lon="2.9662">
        <ele>418.6</ele>
        <time>2000-01-01T23:19:03.000Z</time>
      </trkpt>
      <trkpt lat="44.46167" lon="2.966">
        <ele>418</ele>
        <time>2000-01-01T23:19:13.000Z</time>
      </trkpt>
      <trkpt lat="44.46156" lon="2.96573">
        <ele>418</ele>
        <time>2000-01-01T23:19:23.000Z</time>
      </trkpt>
      <trkpt lat="44.46146" lon="2.96542">
        <ele>418</ele>
        <time>2000-01-01T23:19:33.000Z</time>
      </trkpt>
      <trkpt lat="44.46128" lon="2.96499">
        <ele>418</ele>
        <time>2000-01-01T23:19:43.000Z</time>
      </trkpt>
      <trkpt lat="44.46112" lon="2.96474">
        <ele>418</ele>
        <time>2000-01-01T23:19:53.000Z</time>
      </trkpt>
      <trkpt lat="44.46099" lon="2.96451">
        <ele>418</ele>
        <time>2000-01-01T23:20:03.000Z</time>
      </trkpt>
      <trkpt lat="44.46095" lon="2.96433">
        <ele>418.7</ele>
        <time>2000-01-01T23:20:13.000Z</time>
      </trkpt>
      <trkpt lat="44.46087" lon="2.96408">
        <ele>419</ele>
        <time>2000-01-01T23:20:23.000Z</time>
      </trkpt>
      <trkpt lat="44.46088" lon="2.96381">
        <ele>420</ele>
        <time>2000-01-01T23:20:33.000Z</time>
      </trkpt>
      <trkpt lat="44.4608" lon="2.96365">
        <ele>419.7</ele>
        <time>2000-01-01T23:20:43.000Z</time>
      </trkpt>
      <trkpt lat="44.46074" lon="2.96336">
        <ele>420</ele>
        <time>2000-01-01T23:20:53.000Z</time>
      </trkpt>
      <trkpt lat="44.46091" lon="2.96324">
        <ele>421</ele>
        <time>2000-01-01T23:21:03.000Z</time>
      </trkpt>
      <trkpt lat="44.46119" lon="2.96324">
        <ele>421</ele>
        <time>2000-01-01T23:21:13.000Z</time>
      </trkpt>
      <trkpt lat="44.46134" lon="2.96311">
        <ele>421.8</ele>
        <time>2000-01-01T23:21:23.000Z</time>
      </trkpt>
      <trkpt lat="44.46145" lon="2.96303">
        <ele>421</ele>
        <time>2000-01-01T23:21:33.000Z</time>
      </trkpt>
      <trkpt lat="44.4616" lon="2.963">
        <ele>422.9</ele>
        <time>2000-01-01T23:21:43.000Z</time>
      </trkpt>
      <trkpt lat="44.46171" lon="2.96291">
        <ele>423</ele>
        <time>2000-01-01T23:21:53.000Z</time>
      </trkpt>
      <trkpt lat="44.46192" lon="2.96304">
        <ele>427</ele>
        <time>2000-01-01T23:22:03.000Z</time>
      </trkpt>
      <trkpt lat="44.46213" lon="2.96315">
        <ele>429</ele>
        <time>2000-01-01T23:22:13.000Z</time>
      </trkpt>
      <trkpt lat="44.4622" lon="2.9629">
        <ele>430.8</ele>
        <time>2000-01-01T23:22:23.000Z</time>
      </trkpt>
      <trkpt lat="44.46223" lon="2.96257">
        <ele>430</ele>
        <time>2000-01-01T23:22:33.000Z</time>
      </trkpt>
      <trkpt lat="44.46219" lon="2.96231">
        <ele>430.9</ele>
        <time>2000-01-01T23:22:43.000Z</time>
      </trkpt>
      <trkpt lat="44.46199" lon="2.96198">
        <ele>430</ele>
        <time>2000-01-01T23:22:53.000Z</time>
      </trkpt>
      <trkpt lat="44.46221" lon="2.96178">
        <ele>430</ele>
        <time>2000-01-01T23:23:03.000Z</time>
      </trkpt>
      <trkpt lat="44.46236" lon="2.96158">
        <ele>430</ele>
        <time>2000-01-01T23:23:13.000Z</time>
      </trkpt>
      <trkpt lat="44.46252" lon="2.96147">
        <ele>431.7</ele>
        <time>2000-01-01T23:23:23.000Z</time>
      </trkpt>
      <trkpt lat="44.46262" lon="2.96165">
        <ele>432</ele>
        <time>2000-01-01T23:23:33.000Z</time>
      </trkpt>
      <trkpt lat="44.46279" lon="2.96166">
        <ele>432.1</ele>
        <time>2000-01-01T23:23:43.000Z</time>
      </trkpt>
      <trkpt lat="44.46333" lon="2.96163">
        <ele>433</ele>
        <time>2000-01-01T23:23:53.000Z</time>
      </trkpt>
      <trkpt lat="44.46336" lon="2.9618">
        <ele>434.1</ele>
        <time>2000-01-01T23:24:03.000Z</time>
      </trkpt>
      <trkpt lat="44.46298" lon="2.96186">
        <ele>434</ele>
        <time>2000-01-01T23:24:13.000Z</time>
      </trkpt>
    </trkseg>
  </trk>
</gpx>